Time;durP1;ratioP1;P1;durP2;ratioP2;P2;SDS_P1;SDS_P2;PMS_P1;PMS_P2;Temp;Humidity;BMP_temperature;BMP_pressure;BME280_temperature;BME280_humidity;BME280_pressure;Samples;Min_cycle;Max_cycle;Signal;HPM_P1;HPM_P2
2022/07/17 00:00:13;;;;;;;3.50;1.70;;;;;;;12.13;71.43;99204.25;5089924;28;20618;-76
2022/07/17 00:02:38;;;;;;;2.42;1.35;;;;;;;12.12;71.81;99202.59;5089595;28;20075;-79
2022/07/17 00:05:04;;;;;;;1.45;1.33;;;;;;;12.11;72.19;99200.16;5090444;28;20048;-78
2022/07/17 00:07:30;;;;;;;2.72;1.70;;;;;;;12.11;72.14;99205.66;5090351;28;20081;-77
2022/07/17 00:09:55;;;;;;;3.15;1.60;;;;;;;12.10;71.74;99210.31;5071760;28;20029;-78
2022/07/17 00:12:21;;;;;;;2.85;1.60;;;;;;;12.07;72.09;99216.38;5089881;28;20035;-78
2022/07/17 00:14:47;;;;;;;5.50;1.70;;;;;;;12.05;71.69;99213.09;5089207;28;20035;-80
2022/07/17 00:17:14;;;;;;;2.03;1.42;;;;;;;12.05;71.61;99210.34;5089816;28;20067;-80
2022/07/17 00:19:39;;;;;;;2.38;1.40;;;;;;;12.03;71.50;99215.31;5070819;28;20261;-78
2022/07/17 00:22:05;;;;;;;3.45;1.50;;;;;;;12.01;71.91;99215.63;5089992;28;20533;-80
2022/07/17 00:24:30;;;;;;;2.50;1.60;;;;;;;11.98;71.81;99218.91;5072567;28;20024;-74
2022/07/17 00:26:56;;;;;;;2.67;1.50;;;;;;;11.95;71.85;99219.47;5100035;28;20058;-82
2022/07/17 00:29:21;;;;;;;2.70;1.40;;;;;;;11.93;71.00;99220.88;5098976;28;20056;-79
2022/07/17 00:31:47;;;;;;;5.03;1.80;;;;;;;11.91;71.15;99213.75;5094687;28;20028;-82
2022/07/17 00:34:12;;;;;;;3.63;1.73;;;;;;;11.90;72.14;99214.84;5097331;28;20028;-82
2022/07/17 00:36:38;;;;;;;3.03;1.60;;;;;;;11.89;71.76;99212.38;5098329;28;20035;-84
2022/07/17 00:39:04;;;;;;;3.08;1.90;;;;;;;11.86;71.84;99211.03;5107549;28;20020;-87
2022/07/17 00:41:29;;;;;;;3.00;1.75;;;;;;;11.86;71.65;99212.94;5097513;28;20077;-85
2022/07/17 00:44:02;;;;;;;3.40;1.52;;;;;;;11.83;71.14;99211.59;5106959;28;20039;-84
2022/07/17 00:46:28;;;;;;;2.95;1.40;;;;;;;11.81;71.44;99224.81;5104859;28;20064;-84
2022/07/17 00:48:54;;;;;;;2.92;1.60;;;;;;;11.82;72.07;99236.63;5104769;28;20020;-85
2022/07/17 00:51:19;;;;;;;2.65;1.50;;;;;;;11.78;71.91;99228.13;5105006;28;20030;-85
2022/07/17 00:53:46;;;;;;;5.70;1.77;;;;;;;11.72;71.62;99226.50;5106893;28;20472;-86
2022/07/17 00:56:16;;;;;;;2.28;1.60;;;;;;;11.68;71.79;99230.94;5106797;28;20031;-84
2022/07/17 00:58:42;;;;;;;5.50;1.75;;;;;;;11.66;71.69;99227.66;5108442;28;20047;-86
2022/07/17 01:01:08;;;;;;;3.22;1.73;;;;;;;11.62;71.80;99224.66;5102688;28;20476;-85
2022/07/17 01:03:33;;;;;;;4.10;1.63;;;;;;;11.62;71.81;99224.66;5104813;28;20028;-85
2022/07/17 01:05:59;;;;;;;4.20;1.50;;;;;;;11.59;71.94;99233.47;5106659;28;20021;-83
2022/07/17 01:08:26;;;;;;;2.88;1.50;;;;;;;11.55;72.29;99237.88;5105213;28;20207;-87
2022/07/17 01:10:51;;;;;;;4.28;1.80;;;;;;;11.52;72.16;99243.94;5094743;28;20024;-85
2022/07/17 01:13:16;;;;;;;2.75;1.65;;;;;;;11.50;71.73;99235.16;5091832;28;20028;-84
2022/07/17 01:15:42;;;;;;;3.30;1.80;;;;;;;11.46;71.55;99235.72;5097318;28;20415;-87
2022/07/17 01:18:14;;;;;;;4.07;1.88;;;;;;;11.44;71.42;99237.13;5097858;28;20028;-85
2022/07/17 01:20:41;;;;;;;3.45;1.60;;;;;;;11.41;72.57;99241.25;5103410;28;20044;-86
2022/07/17 01:23:07;;;;;;;3.72;1.95;;;;;;;11.39;72.19;99234.41;5103650;28;20438;-86
2022/07/17 01:25:33;;;;;;;3.00;1.80;;;;;;;11.35;71.69;99236.91;5104692;28;20031;-86
2022/07/17 01:28:00;;;;;;;2.78;1.40;;;;;;;11.35;72.44;99233.31;5101524;28;20044;-86
2022/07/17 01:30:26;;;;;;;2.45;1.50;;;;;;;11.32;72.20;99241.03;5101260;28;20038;-85
2022/07/17 01:32:51;;;;;;;4.47;1.50;;;;;;;11.31;72.37;99231.13;5096601;28;20028;-83
2022/07/17 01:35:17;;;;;;;3.17;1.50;;;;;;;11.30;72.13;99231.44;5097089;28;20063;-84
2022/07/17 01:37:43;;;;;;;4.35;1.50;;;;;;;11.29;72.85;99238.03;5100676;28;20096;-84
2022/07/17 01:40:14;;;;;;;3.05;1.83;;;;;;;11.25;72.09;99240.50;5095512;28;20025;-84
2022/07/17 01:42:45;;;;;;;4.38;1.55;;;;;;;11.22;72.30;99234.75;5097713;28;20095;-85
2022/07/17 01:45:11;;;;;;;2.92;1.40;;;;;;;11.21;72.21;99238.59;5095483;28;20118;-85
2022/07/17 01:47:37;;;;;;;3.08;1.60;;;;;;;11.20;72.44;99234.22;5096108;28;20424;-84
2022/07/17 01:50:03;;;;;;;2.88;1.45;;;;;;;11.20;72.11;99228.72;5100044;28;20107;-85
2022/07/17 01:52:29;;;;;;;3.05;1.50;;;;;;;11.17;71.82;99233.69;5097342;28;20032;-83
2022/07/17 01:54:55;;;;;;;3.95;1.58;;;;;;;11.16;71.75;99232.03;5094844;28;20073;-83
2022/07/17 01:57:21;;;;;;;2.10;1.60;;;;;;;11.13;72.31;99229.03;5096892;28;20116;-83
2022/07/17 01:59:46;;;;;;;3.03;1.27;;;;;;;11.09;72.08;99228.75;5096640;28;20028;-82
2022/07/17 02:02:15;;;;;;;1.60;1.40;;;;;;;11.08;71.90;99227.13;5098798;28;20024;-84
2022/07/17 02:04:45;;;;;;;2.10;1.25;;;;;;;11.07;72.30;99219.19;5104275;28;20020;-85
2022/07/17 02:07:11;;;;;;;;;;;;;;;11.05;71.65;99229.63;5106799;28;20130;-84
2022/07/17 02:09:37;;;;;;;2.47;1.38;;;;;;;11.04;71.38;99238.94;5106654;28;19896;-85
2022/07/17 02:12:03;;;;;;;2.42;1.40;;;;;;;11.00;71.91;99234.03;5101566;28;20036;-83
2022/07/17 02:14:28;;;;;;;2.40;1.13;;;;;;;11.00;71.93;99242.25;5100292;28;20089;-84
2022/07/17 02:16:54;;;;;;;4.40;1.38;;;;;;;10.98;72.16;99233.47;5102442;28;20056;-86
2022/07/17 02:19:19;;;;;;;2.58;1.42;;;;;;;10.96;71.63;99232.94;5076606;28;20062;-84
2022/07/17 02:21:45;;;;;;;3.45;1.40;;;;;;;10.96;71.64;99237.63;5094578;28;20510;-83
2022/07/17 02:24:10;;;;;;;5.20;1.60;;;;;;;10.94;72.11;99240.63;5092840;28;20028;-83
2022/07/17 02:26:36;;;;;;;2.20;1.38;;;;;;;10.92;72.61;99231.03;5083039;28;20114;-84
2022/07/17 02:29:02;;;;;;;4.80;1.40;;;;;;;10.88;71.97;99233.50;5101803;28;20038;-84
2022/07/17 02:31:28;;;;;;;7.82;1.60;;;;;;;10.88;72.14;99241.72;5081556;28;20028;-85
2022/07/17 02:33:53;;;;;;;4.78;1.42;;;;;;;10.88;72.07;99241.72;5108086;28;20024;-87
2022/07/17 02:36:19;;;;;;;3.03;1.33;;;;;;;10.87;71.72;99242.84;5105710;28;20066;-85
2022/07/17 02:38:44;;;;;;;4.13;1.50;;;;;;;10.85;71.39;99243.13;5082256;28;20024;-84
2022/07/17 02:41:10;;;;;;;3.47;1.20;;;;;;;10.83;71.73;99245.31;5104748;28;20028;-87
2022/07/17 02:43:35;;;;;;;3.85;1.30;;;;;;;10.82;71.78;99235.44;5102899;28;20039;-86
2022/07/17 02:46:02;;;;;;;4.60;1.23;;;;;;;10.83;71.96;99239.84;5095381;28;20035;-87
2022/07/17 02:48:27;;;;;;;4.35;1.73;;;;;;;10.82;72.38;99235.44;5091215;28;20035;-84
2022/07/17 02:50:53;;;;;;;3.30;1.13;;;;;;;10.80;71.11;99240.41;5090859;28;20020;-84
2022/07/17 02:53:18;;;;;;;1.50;1.10;;;;;;;10.78;71.40;99241.78;5091441;28;20452;-84
2022/07/17 02:55:43;;;;;;;1.60;1.20;;;;;;;10.76;72.20;99249.47;5091845;28;20118;-84
2022/07/17 02:58:09;;;;;;;3.45;1.20;;;;;;;10.76;71.35;99246.72;5092060;28;20545;-84
2022/07/17 03:00:34;;;;;;;6.15;1.40;;;;;;;10.74;71.64;99240.69;5092526;28;20080;-86
2022/07/17 03:03:00;;;;;;;2.65;1.50;;;;;;;10.71;71.38;99242.91;5092641;28;20039;-83
2022/07/17 03:05:25;;;;;;;3.00;1.30;;;;;;;10.69;71.27;99250.56;5090938;28;20115;-84
2022/07/17 03:07:51;;;;;;;4.40;1.35;;;;;;;10.68;71.30;99248.09;5073537;28;20115;-85
2022/07/17 03:10:16;;;;;;;3.20;1.20;;;;;;;10.65;71.58;99251.38;5072191;28;20036;-84
2022/07/17 03:12:42;;;;;;;3.60;0.85;;;;;;;10.65;71.41;99257.72;5090945;28;20028;-84
2022/07/17 03:15:09;;;;;;;3.75;1.33;;;;;;;10.66;71.12;99256.63;5091357;28;20051;-86
2022/07/17 03:17:35;;;;;;;2.70;1.10;;;;;;;10.67;71.87;99269.25;5091196;28;20024;-86
2022/07/17 03:20:01;;;;;;;2.33;1.25;;;;;;;10.68;71.31;99259.06;5092679;28;20138;-85
2022/07/17 03:22:27;;;;;;;4.50;1.75;;;;;;;10.70;70.96;99265.94;5091555;28;20546;-83
2022/07/17 03:24:52;;;;;;;4.10;1.30;;;;;;;10.72;71.00;99266.50;5091188;28;20071;-83
2022/07/17 03:27:18;;;;;;;4.22;1.30;;;;;;;10.75;70.98;99270.59;5091872;28;20423;-84
2022/07/17 03:29:44;;;;;;;2.47;1.20;;;;;;;10.77;71.42;99275.81;5090601;28;20028;-83
2022/07/17 03:32:10;;;;;;;3.13;1.23;;;;;;;10.80;71.18;99283.50;5069499;28;20043;-84
2022/07/17 03:34:36;;;;;;;6.18;1.55;;;;;;;10.80;71.13;99276.06;5072355;28;20456;-83
2022/07/17 03:37:02;;;;;;;4.20;1.20;;;;;;;10.82;70.44;99284.84;5088968;28;20089;-83
2022/07/17 03:39:27;;;;;;;7.10;1.33;;;;;;;10.85;70.94;99284.28;5089691;28;20107;-83
2022/07/17 03:41:53;;;;;;;4.07;1.40;;;;;;;10.89;71.10;99290.03;5088845;28;20110;-84
2022/07/17 03:44:18;;;;;;;5.57;1.10;;;;;;;10.90;70.75;99291.69;5090460;28;20032;-84
2022/07/17 03:46:44;;;;;;;3.47;1.10;;;;;;;10.94;70.96;99289.22;5090651;28;20024;-85
2022/07/17 03:49:10;;;;;;;2.03;0.80;;;;;;;10.96;70.64;99290.56;5091635;28;20032;-84
2022/07/17 03:51:36;;;;;;;5.13;1.20;;;;;;;10.99;70.80;99287.28;5090848;28;20024;-84
2022/07/17 03:54:02;;;;;;;3.47;1.15;;;;;;;11.01;70.71;99292.47;5090799;28;20028;-84
2022/07/17 03:56:27;;;;;;;2.92;1.20;;;;;;;11.02;70.27;99294.13;5090735;28;20038;-84
2022/07/17 03:58:53;;;;;;;2.65;1.25;;;;;;;11.05;70.80;99296.31;5091129;28;20106;-84
2022/07/17 04:01:18;;;;;;;1.77;0.90;;;;;;;11.09;70.43;99299.31;5072213;28;20123;-84
2022/07/17 04:03:44;;;;;;;2.85;1.27;;;;;;;11.10;70.31;99301.78;5090435;28;20016;-83
2022/07/17 04:06:09;;;;;;;5.53;1.35;;;;;;;11.15;70.21;99301.78;5092707;28;20062;-84
2022/07/17 04:08:35;;;;;;;2.88;0.98;;;;;;;11.18;70.03;99294.91;5094176;28;20787;-86
2022/07/17 04:11:00;;;;;;;5.38;1.23;;;;;;;11.24;70.35;99309.44;5091502;28;20036;-85
2022/07/17 04:13:26;;;;;;;3.00;1.13;;;;;;;11.25;70.11;99311.88;5093710;28;20527;-84
2022/07/17 04:15:57;;;;;;;3.67;1.00;;;;;;;11.29;70.10;99309.44;5093779;28;20034;-85
2022/07/17 04:18:31;;;;;;;2.33;1.55;;;;;;;11.34;70.50;99311.31;5093074;28;20035;-85
2022/07/17 04:21:00;;;;;;;2.97;1.10;;;;;;;11.39;69.48;99312.13;5093015;28;20071;-87
2022/07/17 04:23:26;;;;;;;11.88;6.25;;;;;;;11.41;69.54;99309.91;5075839;28;20093;-86
2022/07/17 04:25:52;;;;;;;4.65;2.33;;;;;;;11.45;69.70;99315.69;5093615;28;20456;-84
2022/07/17 04:28:19;;;;;;;10.25;3.78;;;;;;;11.50;69.24;99314.81;5091543;28;20051;-86
2022/07/17 04:30:44;;;;;;;4.15;1.40;;;;;;;11.54;69.61;99316.75;5094792;28;20024;-87
2022/07/17 04:33:10;;;;;;;2.67;1.13;;;;;;;11.58;69.75;99320.56;5093917;28;20042;-84
2022/07/17 04:35:36;;;;;;;2.15;1.00;;;;;;;11.63;68.89;99316.97;5092357;28;20036;-84
2022/07/17 04:38:04;;;;;;;4.32;1.10;;;;;;;11.70;69.17;99322.16;5092927;28;20099;-85
2022/07/17 04:40:31;;;;;;;2.92;0.80;;;;;;;11.74;69.51;99332.31;5094003;28;20024;-84
2022/07/17 04:42:57;;;;;;;4.25;1.00;;;;;;;11.80;69.44;99322.09;5093474;28;20113;-84
2022/07/17 04:45:23;;;;;;;4.78;1.02;;;;;;;11.88;69.32;99337.16;5093200;28;20052;-84
2022/07/17 04:47:48;;;;;;;0.88;0.60;;;;;;;11.93;68.48;99328.91;5093216;28;20024;-84
2022/07/17 04:50:14;;;;;;;2.75;1.23;;;;;;;11.96;68.59;99330.28;5093906;28;20028;-84
2022/07/17 04:52:41;;;;;;;3.38;1.00;;;;;;;12.03;68.32;99336.28;5090016;28;20024;-85
2022/07/17 04:55:06;;;;;;;2.72;0.77;;;;;;;12.08;68.82;99329.94;5077299;28;20074;-77
2022/07/17 04:57:32;;;;;;;4.43;1.17;;;;;;;12.12;68.23;99334.59;5092257;28;20028;-78
2022/07/17 04:59:58;;;;;;;2.20;0.90;;;;;;;12.17;68.30;99331.00;5092134;28;20128;-77
2022/07/17 05:02:23;;;;;;;4.00;0.90;;;;;;;12.23;68.52;99334.53;5092202;28;20472;-77
2022/07/17 05:04:49;;;;;;;5.45;0.98;;;;;;;12.29;68.35;99344.38;5090966;28;20031;-79
2022/07/17 05:07:15;;;;;;;4.63;1.30;;;;;;;12.33;68.41;99337.22;5092134;28;21546;-78
2022/07/17 05:09:41;;;;;;;3.75;1.10;;;;;;;12.39;68.10;99338.81;5091936;28;20472;-78
2022/07/17 05:12:07;;;;;;;2.85;1.00;;;;;;;12.45;68.30;99332.16;5089748;28;20387;-78
2022/07/17 05:14:32;;;;;;;1.83;0.77;;;;;;;12.52;67.63;99340.09;5091896;28;20020;-77
2022/07/17 05:16:58;;;;;;;2.80;0.90;;;;;;;12.57;67.49;99330.97;5090480;28;20031;-77
2022/07/17 05:19:23;;;;;;;2.78;0.77;;;;;;;12.63;67.27;99332.56;5092170;28;20435;-79
2022/07/17 05:21:50;;;;;;;4.75;1.08;;;;;;;12.72;67.48;99332.75;5091531;28;20512;-77
2022/07/17 05:24:15;;;;;;;3.15;1.10;;;;;;;12.80;67.38;99340.41;5073749;28;20016;-77
2022/07/17 05:26:40;;;;;;;3.60;0.70;;;;;;;12.89;66.77;99335.06;5073497;28;20503;-79
2022/07/17 05:29:06;;;;;;;4.55;1.17;;;;;;;12.92;67.22;99332.56;5091817;28;20024;-78
2022/07/17 05:31:31;;;;;;;3.80;0.80;;;;;;;13.01;67.09;99341.03;5073645;28;20024;-78
2022/07/17 05:33:57;;;;;;;2.05;0.70;;;;;;;13.07;66.73;99336.25;5091355;28;20053;-78
2022/07/17 05:36:22;;;;;;;3.92;1.00;;;;;;;13.13;66.21;99337.06;5091155;28;20038;-78
2022/07/17 05:38:48;;;;;;;3.65;1.05;;;;;;;13.19;66.45;99344.16;5091827;28;20062;-78
2022/07/17 05:41:13;;;;;;;5.00;0.80;;;;;;;13.24;66.29;99344.09;5091707;28;20406;-78
2022/07/17 05:43:38;;;;;;;3.03;0.82;;;;;;;13.30;66.28;99351.16;5091145;28;20024;-79
2022/07/17 05:46:04;;;;;;;5.32;1.00;;;;;;;13.37;66.31;99350.84;5091258;28;20020;-78
2022/07/17 05:48:31;;;;;;;4.43;1.02;;;;;;;13.44;65.94;99350.50;5091504;28;20027;-78
2022/07/17 05:50:56;;;;;;;2.33;0.80;;;;;;;13.48;65.78;99352.38;5091165;28;20511;-78
2022/07/17 05:53:22;;;;;;;2.00;0.70;;;;;;;13.53;65.51;99348.75;5091078;28;20024;-79
2022/07/17 05:55:48;;;;;;;4.88;0.98;;;;;;;13.56;65.32;99359.19;5087352;28;20025;-78
2022/07/17 05:58:13;;;;;;;5.60;1.17;;;;;;;13.61;65.28;99363.81;5090789;28;20126;-78
2022/07/17 06:00:39;;;;;;;5.80;1.08;;;;;;;13.65;64.99;99365.69;5090929;28;20402;-78
2022/07/17 06:03:07;;;;;;;5.13;0.90;;;;;;;13.69;65.32;99365.94;5090611;28;20384;-78
2022/07/17 06:05:33;;;;;;;3.85;1.02;;;;;;;13.74;64.65;99365.03;5089759;28;20036;-79
2022/07/17 06:07:58;;;;;;;4.93;1.30;;;;;;;13.77;64.75;99373.53;5090622;28;20032;-78
2022/07/17 06:10:25;;;;;;;5.47;1.20;;;;;;;13.83;64.78;99368.78;5089337;28;20161;-80
2022/07/17 06:12:52;;;;;;;4.85;1.00;;;;;;;13.89;64.95;99377.78;5091254;28;20112;-80
2022/07/17 06:15:19;;;;;;;5.25;1.13;;;;;;;13.92;65.36;99380.78;5090593;28;20024;-79
2022/07/17 06:17:44;;;;;;;2.67;1.00;;;;;;;13.97;65.02;99372.47;5088010;28;20027;-80
2022/07/17 06:20:11;;;;;;;3.03;0.95;;;;;;;14.05;64.77;99379.25;5090721;28;20059;-80
2022/07/17 06:22:37;;;;;;;5.93;1.10;;;;;;;14.10;64.68;99389.38;5091149;28;20426;-79
2022/07/17 06:25:02;;;;;;;4.03;1.00;;;;;;;14.16;64.87;99385.44;5072078;28;20032;-80
2022/07/17 06:27:28;;;;;;;3.15;1.10;;;;;;;14.21;65.06;99377.09;5072712;28;20098;-80
2022/07/17 06:29:53;;;;;;;3.10;1.15;;;;;;;14.27;64.22;99386.94;5090248;28;20035;-80
2022/07/17 06:32:19;;;;;;;6.00;1.30;;;;;;;14.32;64.03;99388.78;5072446;28;20050;-78
2022/07/17 06:34:44;;;;;;;1.92;0.75;;;;;;;14.36;64.05;99389.03;5089671;28;20035;-80
2022/07/17 06:37:10;;;;;;;3.30;1.20;;;;;;;14.41;63.64;99383.44;5090270;28;20047;-79
2022/07/17 06:39:35;;;;;;;5.10;1.10;;;;;;;14.48;63.80;99385.81;5090213;28;20058;-80
2022/07/17 06:42:00;;;;;;;3.22;1.20;;;;;;;14.52;63.56;99392.38;5090262;28;20116;-80
2022/07/17 06:44:26;;;;;;;3.88;1.42;;;;;;;14.58;63.56;99391.97;5086336;28;20357;-80
2022/07/17 06:46:52;;;;;;;2.90;1.13;;;;;;;14.61;63.71;99392.50;5089206;28;20024;-82
2022/07/17 06:49:17;;;;;;;3.78;1.48;;;;;;;14.67;63.35;99391.31;5071356;28;20065;-80
2022/07/17 06:51:45;;;;;;;2.63;1.00;;;;;;;14.76;63.39;99389.53;5088568;28;20658;-81
2022/07/17 06:54:12;;;;;;;3.97;1.20;;;;;;;14.85;63.52;99387.75;5089413;28;20085;-80
2022/07/17 06:56:37;;;;;;;3.22;1.10;;;;;;;14.94;63.73;99398.91;5089253;28;20073;-80
2022/07/17 06:59:03;;;;;;;2.85;1.00;;;;;;;15.03;63.90;99387.97;5088938;28;20016;-80
2022/07/17 07:01:28;;;;;;;2.35;0.93;;;;;;;15.13;63.74;99385.03;5089184;28;20031;-81
2022/07/17 07:03:54;;;;;;;4.07;1.02;;;;;;;15.23;62.96;99388.75;5089118;28;20345;-80
2022/07/17 07:06:19;;;;;;;3.22;0.82;;;;;;;15.27;63.51;99390.59;5088512;28;20024;-78
2022/07/17 07:08:45;;;;;;;2.03;0.90;;;;;;;15.33;62.85;99388.53;5054135;28;20028;-81
2022/07/17 07:11:10;;;;;;;3.00;1.02;;;;;;;15.36;62.83;99390.69;5088897;28;20032;-80
2022/07/17 07:13:36;;;;;;;4.20;0.90;;;;;;;15.41;62.26;99392.56;5088802;28;20020;-81
2022/07/17 07:16:02;;;;;;;3.75;0.85;;;;;;;15.46;61.96;99396.03;5088938;28;20538;-79
2022/07/17 07:18:27;;;;;;;1.00;0.70;;;;;;;15.47;62.06;99397.66;5088743;28;20103;-80
2022/07/17 07:20:53;;;;;;;6.72;0.80;;;;;;;15.51;62.12;99399.81;5088553;28;20122;-80
2022/07/17 07:23:18;;;;;;;4.22;0.80;;;;;;;15.56;62.04;99400.53;5088301;28;20467;-80
2022/07/17 07:25:44;;;;;;;3.05;0.70;;;;;;;15.60;61.78;99401.56;5088072;28;20024;-80
2022/07/17 07:28:09;;;;;;;2.60;0.90;;;;;;;15.65;62.26;99406.19;5089098;28;20023;-81
2022/07/17 07:30:35;;;;;;;2.97;0.82;;;;;;;15.68;62.10;99410.28;5070855;28;20523;-82
2022/07/17 07:33:00;;;;;;;2.60;0.70;;;;;;;15.74;62.18;99407.09;5089018;28;21394;-80
2022/07/17 07:35:25;;;;;;;3.13;0.70;;;;;;;15.82;60.95;99410.25;5088362;28;20682;-80
2022/07/17 07:37:51;;;;;;;5.03;0.80;;;;;;;15.84;61.37;99411.63;5088052;28;20115;-81
2022/07/17 07:40:17;;;;;;;3.67;0.90;;;;;;;15.90;61.52;99421.44;5089390;28;20020;-81
2022/07/17 07:42:42;;;;;;;1.90;0.70;;;;;;;15.97;61.11;99417.47;5092608;28;20107;-82
2022/07/17 07:45:08;;;;;;;2.35;0.75;;;;;;;16.06;61.67;99423.91;5092742;28;20025;-80
2022/07/17 07:47:46;;;;;;;3.97;0.82;;;;;;;16.14;61.20;99425.13;5092710;28;20044;-80
2022/07/17 07:50:12;;;;;;;4.07;0.68;;;;;;;16.20;60.46;99426.66;5071450;28;20032;-80
2022/07/17 07:52:38;;;;;;;3.53;0.90;;;;;;;16.19;60.56;99423.06;5091489;28;20051;-81
2022/07/17 07:55:04;;;;;;;4.78;0.80;;;;;;;16.27;60.57;99424.28;5090741;28;20047;-82
2022/07/17 07:57:30;;;;;;;3.20;0.98;;;;;;;16.36;61.09;99427.97;5091281;28;20032;-79
2022/07/17 07:59:56;;;;;;;3.88;0.93;;;;;;;16.46;61.02;99423.34;5090228;28;20051;-80
2022/07/17 08:02:21;;;;;;;3.28;0.90;;;;;;;16.53;60.46;99423.69;5091624;28;20032;-81
2022/07/17 08:04:46;;;;;;;2.92;0.73;;;;;;;16.60;60.09;99426.84;5090810;28;20024;-80
2022/07/17 08:07:12;;;;;;;5.72;1.10;;;;;;;16.69;60.46;99420.56;5091968;28;20034;-80
2022/07/17 08:09:37;;;;;;;4.80;0.70;;;;;;;16.83;60.09;99418.56;5092287;28;20379;-80
2022/07/17 08:12:03;;;;;;;2.22;0.75;;;;;;;17.02;59.22;99423.97;5091898;28;20380;-81
2022/07/17 08:14:28;;;;;;;3.58;0.63;;;;;;;17.11;59.15;99426.78;5092320;28;20035;-80
2022/07/17 08:16:53;;;;;;;3.83;0.73;;;;;;;17.22;58.25;99419.84;5091384;28;20035;-80
2022/07/17 08:19:19;;;;;;;6.28;0.85;;;;;;;17.38;58.44;99417.47;5092084;28;20097;-81
2022/07/17 08:21:44;;;;;;;3.30;0.60;;;;;;;17.58;57.61;99423.59;5091942;28;20020;-81
2022/07/17 08:24:10;;;;;;;2.17;0.50;;;;;;;17.61;56.23;99424.94;5092176;28;20056;-82
2022/07/17 08:26:35;;;;;;;3.20;0.60;;;;;;;17.57;56.22;99421.97;5091227;28;20024;-81
2022/07/17 08:29:01;;;;;;;3.28;0.65;;;;;;;17.53;56.52;99419.00;5091762;28;20035;-81
2022/07/17 08:31:26;;;;;;;3.53;0.68;;;;;;;17.59;56.61;99424.44;5091820;28;20024;-82
2022/07/17 08:33:52;;;;;;;1.88;0.80;;;;;;;17.73;56.27;99424.31;5092091;28;20169;-81
2022/07/17 08:36:17;;;;;;;4.25;0.57;;;;;;;17.88;55.88;99423.06;5091381;28;20432;-81
2022/07/17 08:38:43;;;;;;;4.18;0.70;;;;;;;18.00;55.93;99429.66;5091735;28;20023;-83
2022/07/17 08:41:10;;;;;;;4.40;0.68;;;;;;;18.23;55.45;99425.94;5091580;28;20061;-82
2022/07/17 08:43:36;;;;;;;3.30;0.50;;;;;;;18.47;55.28;99428.25;5091663;28;20106;-81
2022/07/17 08:46:01;;;;;;;3.10;0.73;;;;;;;18.69;54.52;99424.53;5091198;28;20501;-83
2022/07/17 08:48:27;;;;;;;2.40;0.60;;;;;;;18.93;53.80;99428.78;5091685;28;20028;-81
2022/07/17 08:50:55;;;;;;;1.77;0.82;;;;;;;19.06;52.81;99417.81;5091240;28;20388;-82
2022/07/17 08:53:21;;;;;;;1.60;0.50;;;;;;;19.12;52.91;99427.63;5091096;28;20114;-84
2022/07/17 08:55:47;;;;;;;1.70;0.60;;;;;;;19.14;52.10;99428.09;5090579;28;20027;-84
2022/07/17 08:58:19;;;;;;;1.92;0.60;;;;;;;19.16;51.72;99431.38;5089440;28;20024;-84
2022/07/17 09:00:45;;;;;;;3.55;0.70;;;;;;;19.20;51.23;99426.78;5092284;28;20036;-84
2022/07/17 09:03:11;;;;;;;1.90;0.60;;;;;;;19.24;49.50;99419.41;5091422;28;20024;-82
2022/07/17 09:05:39;;;;;;;2.63;0.70;;;;;;;19.27;49.78;99424.31;5090789;28;20601;-82
2022/07/17 09:08:07;;;;;;;3.53;0.70;;;;;;;19.33;49.10;99430.50;5090251;28;20028;-83
2022/07/17 09:10:41;;;;;;;2.85;0.60;;;;;;;19.40;47.81;99421.66;5091194;28;20024;-83
2022/07/17 09:13:17;;;;;;;3.50;0.68;;;;;;;19.45;49.20;99424.25;5072052;28;20036;-81
2022/07/17 09:15:42;;;;;;;3.75;0.60;;;;;;;19.50;48.49;99429.63;5072720;28;20103;-80
2022/07/17 09:18:08;;;;;;;2.08;1.05;;;;;;;19.44;47.70;99426.22;5090865;28;20095;-81
2022/07/17 09:20:33;;;;;;;1.52;0.70;;;;;;;19.37;47.83;99434.25;5090758;28;20480;-81
2022/07/17 09:23:04;;;;;;;2.13;0.70;;;;;;;19.29;47.55;99446.22;5090091;28;20028;-82
2022/07/17 09:25:38;;;;;;;3.25;0.80;;;;;;;19.28;47.50;99444.59;5090494;28;20043;-83
2022/07/17 09:28:05;;;;;;;1.58;0.50;;;;;;;19.30;47.93;99447.84;5090569;28;20035;-80
2022/07/17 09:30:32;;;;;;;1.60;0.60;;;;;;;19.41;48.29;99439.97;5090490;28;20036;-80
2022/07/17 09:32:58;;;;;;;1.95;0.90;;;;;;;19.56;48.58;99445.00;5071862;28;20520;-80
2022/07/17 09:35:24;;;;;;;14.30;4.28;;;;;;;19.72;47.79;99444.47;5088338;28;20455;-81
2022/07/17 09:37:55;;;;;;;3.58;0.93;;;;;;;19.81;47.64;99445.22;5068601;28;20035;-84
2022/07/17 09:43:07;;;;;;;3.50;1.10;;;;;;;19.97;44.50;99441.91;5089577;28;20119;-82
2022/07/17 09:45:34;;;;;;;4.03;1.80;;;;;;;19.96;45.29;99443.06;5089195;28;20024;-81
2022/07/17 09:48:00;;;;;;;2.38;0.70;;;;;;;19.99;44.58;99436.84;5087949;28;20042;-81
2022/07/17 09:50:28;;;;;;;2.55;0.70;;;;;;;20.08;45.11;99421.69;5090398;28;20036;-81
2022/07/17 09:52:56;;;;;;;1.48;0.50;;;;;;;20.14;44.71;99424.28;5089746;28;20024;-79
2022/07/17 09:55:26;;;;;;;4.77;0.60;;;;;;;20.12;44.99;99427.44;5089444;28;20042;-82
2022/07/17 09:57:54;;;;;;;4.10;0.63;;;;;;;20.21;44.39;99433.75;5088682;28;20027;-79
2022/07/17 10:00:22;;;;;;;1.85;0.73;;;;;;;20.32;44.57;99427.78;5088167;28;20024;-81
2022/07/17 10:02:48;;;;;;;3.53;1.00;;;;;;;20.50;44.36;99434.03;5087928;28;20059;-79
2022/07/17 10:05:15;;;;;;;2.15;0.80;;;;;;;20.59;43.98;99433.97;5088230;28;20714;-80
2022/07/17 10:07:45;;;;;;;2.75;0.77;;;;;;;20.66;45.14;99434.25;5089079;28;20480;-81
2022/07/17 10:10:12;;;;;;;2.50;0.50;;;;;;;20.70;44.36;99443.56;5089020;28;20511;-81
2022/07/17 10:12:40;;;;;;;5.18;0.80;;;;;;;20.64;43.28;99451.31;5089214;28;20533;-80
2022/07/17 10:15:07;;;;;;;2.95;0.70;;;;;;;20.59;43.43;99447.91;5089830;28;20028;-82
2022/07/17 10:17:33;;;;;;;3.28;0.93;;;;;;;20.61;43.82;99449.22;5089111;28;20103;-85
2022/07/17 10:19:59;;;;;;;2.28;0.57;;;;;;;20.72;43.20;99441.25;5089860;28;20549;-82
2022/07/17 10:22:26;;;;;;;1.27;0.50;;;;;;;20.80;41.93;99434.81;5089974;28;20024;-81
2022/07/17 10:24:56;;;;;;;2.35;0.70;;;;;;;20.88;43.61;99440.66;5089233;28;20047;-81
2022/07/17 10:27:24;;;;;;;1.55;0.43;;;;;;;20.99;42.10;99441.06;5089628;28;20040;-80
2022/07/17 10:30:10;;;;;;;4.88;1.02;;;;;;;20.93;42.16;99452.41;5090212;28;20046;-81
2022/07/17 10:32:36;;;;;;;1.23;0.70;;;;;;;20.79;42.48;99447.13;5092630;28;20024;-80
2022/07/17 10:35:07;;;;;;;2.65;0.63;;;;;;;20.66;42.78;99445.41;5091393;28;20024;-79
2022/07/17 10:37:36;;;;;;;3.28;0.60;;;;;;;20.59;42.98;99442.34;5094347;28;20028;-80
2022/07/17 10:40:28;;;;;;;2.58;0.70;;;;;;;20.61;42.08;99440.84;5090951;28;20811;-81
2022/07/17 10:43:00;;;;;;;1.25;0.50;;;;;;;20.67;43.15;99439.50;5077229;28;20122;-79
2022/07/17 10:45:35;;;;;;;1.95;0.60;;;;;;;20.81;43.17;99436.47;5088399;28;20099;-80
2022/07/17 10:48:22;;;;;;;3.67;0.68;;;;;;;21.11;43.70;99424.38;5087714;28;20032;-83
2022/07/17 10:50:56;;;;;;;2.20;0.80;;;;;;;21.38;42.56;99428.53;5084493;28;20038;-84
2022/07/17 10:53:33;;;;;;;3.67;1.67;;;;;;;21.49;42.84;99430.84;5087780;28;20105;-82
2022/07/17 10:56:04;;;;;;;5.07;2.30;;;;;;;21.49;41.94;99434.47;5068105;28;20027;-82
2022/07/17 10:58:34;;;;;;;1.92;0.50;;;;;;;21.35;40.53;99436.75;5069916;28;20084;-82
2022/07/17 11:00:59;;;;;;;2.38;0.68;;;;;;;21.21;41.16;99431.50;5087933;28;20016;-85
2022/07/17 11:03:25;;;;;;;1.23;0.50;;;;;;;21.18;39.33;99435.78;5088287;28;20028;-82
2022/07/17 11:05:52;;;;;;;2.53;0.65;;;;;;;21.20;40.50;99432.66;5087833;28;20027;-81
2022/07/17 11:08:18;;;;;;;1.13;0.50;;;;;;;21.41;40.53;99427.81;5088311;28;20047;-82
2022/07/17 11:10:45;;;;;;;2.30;0.55;;;;;;;21.74;40.75;99420.56;5089089;28;20456;-83
2022/07/17 11:13:13;;;;;;;2.78;0.55;;;;;;;22.03;39.65;99423.47;5088816;28;20435;-82
2022/07/17 11:15:45;;;;;;;1.75;0.65;;;;;;;22.23;39.37;99407.75;5090396;28;20073;-82
2022/07/17 11:18:16;;;;;;;4.78;1.35;;;;;;;22.29;39.15;99412.72;5095874;28;20353;-83
2022/07/17 11:20:55;;;;;;;1.88;0.60;;;;;;;22.39;38.76;99421.78;5092407;28;20395;-77
2022/07/17 11:23:22;;;;;;;3.50;0.60;;;;;;;22.39;39.17;99410.63;5090363;28;20034;-78
2022/07/17 11:25:58;;;;;;;1.58;0.50;;;;;;;22.38;37.65;99411.78;5090154;28;20012;-77
2022/07/17 11:28:33;;;;;;;2.53;0.55;;;;;;;22.29;38.67;99414.72;5091199;28;20036;-77
2022/07/17 11:31:00;;;;;;;2.58;0.98;;;;;;;22.29;38.40;99406.34;5091471;28;20050;-80
2022/07/17 11:33:26;;;;;;;3.95;0.80;;;;;;;22.26;38.65;99407.03;5092201;28;20491;-77